createdAt,value
2023-08-13T00:00:53.183Z,101295.81
2023-08-13T00:05:56.246Z,101289.59
2023-08-13T00:10:59.257Z,101287.75
2023-08-13T00:16:02.670Z,101273.91
2023-08-13T00:21:05.736Z,101308.47
2023-08-13T00:26:08.795Z,101331.97
2023-08-13T00:31:12.089Z,101304.06
2023-08-13T00:36:15.469Z,101313.00
2023-08-13T00:41:19.263Z,101279.84
2023-08-13T00:46:23.371Z,101299.28
2023-08-13T00:51:28.336Z,101305.19
2023-08-13T00:56:31.482Z,101303.56
2023-08-13T01:01:35.349Z,101303.25
2023-08-13T01:07:08.217Z,101305.38
2023-08-13T01:12:39.727Z,101306.28
2023-08-13T01:17:45.377Z,101283.50
2023-08-13T01:22:49.842Z,101284.53
2023-08-13T01:28:05.082Z,101302.16
2023-08-13T01:33:16.153Z,101311.34
2023-08-13T01:38:20.037Z,101319.16
2023-08-13T01:43:23.132Z,101356.31
2023-08-13T01:48:27.798Z,101392.75
2023-08-13T01:53:30.975Z,101374.03
2023-08-13T01:58:34.648Z,101376.63
2023-08-13T02:03:37.635Z,101386.31
2023-08-13T02:08:40.634Z,101372.94
2023-08-13T02:13:45.031Z,101387.47
2023-08-13T02:18:48.213Z,101395.44
2023-08-13T02:23:53.191Z,101383.88
2023-08-13T02:28:56.503Z,101396.44
2023-08-13T02:33:59.577Z,101374.31
2023-08-13T02:39:02.671Z,101377.75
2023-08-13T02:44:06.112Z,101366.47
2023-08-13T02:49:10.220Z,101384.75
2023-08-13T02:54:13.371Z,101399.31
2023-08-13T02:59:16.409Z,101419.72
2023-08-13T03:04:19.648Z,101411.00
2023-08-13T03:09:24.276Z,101410.16
2023-08-13T03:14:27.313Z,101420.13
2023-08-13T03:19:30.775Z,101425.28
2023-08-13T03:24:35.110Z,101421.16
2023-08-13T03:29:38.868Z,101418.16
2023-08-13T03:34:44.084Z,101430.00
2023-08-13T03:39:47.170Z,101401.75
2023-08-13T03:44:50.296Z,101391.47
2023-08-13T03:49:53.580Z,101380.66
2023-08-13T03:54:56.629Z,101367.81
2023-08-13T04:00:00.774Z,101309.03
2023-08-13T04:05:08.369Z,101298.50
2023-08-13T04:10:11.726Z,101251.47
2023-08-13T04:15:14.913Z,101250.59
2023-08-13T04:20:20.204Z,101282.53
2023-08-13T04:25:23.651Z,101315.28
2023-08-13T04:30:27.074Z,101299.25
2023-08-13T04:35:30.212Z,101288.34
2023-08-13T04:40:33.590Z,101312.41
2023-08-13T04:45:36.819Z,101317.50
2023-08-13T04:50:39.931Z,101327.03
2023-08-13T04:55:43.135Z,101325.88
2023-08-13T05:00:46.926Z,101317.13
2023-08-13T05:05:50.374Z,101328.69
2023-08-13T05:10:53.732Z,101360.59
2023-08-13T05:15:57.114Z,101360.31
2023-08-13T05:21:00.440Z,101371.94
2023-08-13T05:26:03.712Z,101377.47
2023-08-13T05:31:08.727Z,101378.53
2023-08-13T05:36:11.984Z,101384.38
2023-08-13T05:41:15.154Z,101404.13
2023-08-13T05:46:18.360Z,101452.06
2023-08-13T05:51:22.181Z,101463.19
2023-08-13T05:56:25.255Z,101463.75
2023-08-13T06:01:30.121Z,101477.84
2023-08-13T06:06:34.411Z,101452.16
2023-08-13T06:11:37.426Z,101393.91
2023-08-13T06:16:40.617Z,101412.59
2023-08-13T06:21:43.709Z,101443.38
2023-08-13T06:26:47.064Z,101439.72
2023-08-13T06:31:50.557Z,101420.56
2023-08-13T06:36:55.268Z,101443.84
2023-08-13T06:41:59.021Z,101456.50
2023-08-13T06:47:06.253Z,101430.78
2023-08-13T06:52:09.370Z,101436.75
2023-08-13T06:57:12.418Z,101419.75
2023-08-13T07:02:15.665Z,101411.94
2023-08-13T07:07:18.855Z,101430.00
2023-08-13T07:12:21.900Z,101432.25
2023-08-13T07:17:25.058Z,101453.22
2023-08-13T07:22:29.283Z,101456.81
2023-08-13T07:27:32.992Z,101454.56
2023-08-13T07:32:40.036Z,101468.22
2023-08-13T07:37:43.401Z,101463.47
2023-08-13T07:42:46.568Z,101436.53
2023-08-13T07:47:49.655Z,101436.50
2023-08-13T07:52:52.780Z,101468.22
2023-08-13T07:57:55.902Z,101472.09
2023-08-13T08:02:59.640Z,101479.53
2023-08-13T08:08:03.058Z,101458.09
2023-08-13T08:13:06.291Z,101457.97
2023-08-13T08:18:09.491Z,101442.59
2023-08-13T08:23:15.304Z,101456.31
2023-08-13T08:28:18.421Z,101463.00
2023-08-13T08:33:22.891Z,101466.84
2023-08-13T08:38:26.081Z,101467.56
2023-08-13T08:43:35.752Z,101468.75
2023-08-13T08:48:40.866Z,101463.81
2023-08-13T08:53:45.545Z,101481.06
2023-08-13T08:58:48.774Z,101498.19
2023-08-13T09:03:51.901Z,101495.63
2023-08-13T09:08:55.024Z,101490.66
2023-08-13T09:13:59.698Z,101463.03
2023-08-13T09:19:13.122Z,101473.06
2023-08-13T09:24:17.649Z,101484.38
2023-08-13T09:29:21.513Z,101509.41
2023-08-13T09:34:27.208Z,101509.56
2023-08-13T09:39:37.856Z,101520.75
2023-08-13T09:44:41.197Z,101541.06
2023-08-13T09:49:45.901Z,101530.88
2023-08-13T09:54:50.246Z,101559.84
2023-08-13T09:59:55.317Z,101574.50
2023-08-13T10:05:00.804Z,101548.22
2023-08-13T10:10:07.880Z,101527.16
2023-08-13T10:15:12.847Z,101530.31
2023-08-13T10:20:19.752Z,101529.44
2023-08-13T10:25:36.129Z,101540.09
2023-08-13T10:30:39.234Z,101570.00
2023-08-13T10:35:43.630Z,101549.75
2023-08-13T10:41:00.960Z,101577.78
2023-08-13T10:46:08.081Z,101573.25
2023-08-13T10:51:11.375Z,101570.75
2023-08-13T10:56:19.186Z,101592.38
2023-08-13T11:01:22.433Z,101560.44
2023-08-13T11:06:29.553Z,101551.50
2023-08-13T11:11:33.565Z,101539.25
2023-08-13T11:16:37.378Z,101435.63
2023-08-13T11:21:40.564Z,101290.53
2023-08-13T11:26:43.784Z,101224.69
2023-08-13T11:31:47.659Z,101180.94
2023-08-13T11:36:52.067Z,101252.00
2023-08-13T11:41:55.178Z,101300.84
2023-08-13T11:47:02.062Z,101293.50
2023-08-13T11:52:07.593Z,101264.09
2023-08-13T11:57:11.352Z,101263.78
2023-08-13T12:02:16.781Z,101257.72
2023-08-13T12:07:20.285Z,101252.31
2023-08-13T12:12:23.299Z,101278.53
2023-08-13T12:17:26.303Z,101299.31
2023-08-13T12:22:31.916Z,101297.59
2023-08-13T12:27:36.223Z,101309.75
2023-08-13T12:32:39.464Z,101302.78
2023-08-13T12:37:42.643Z,101345.25
2023-08-13T12:42:46.384Z,101389.31
2023-08-13T12:47:49.474Z,101387.34
2023-08-13T12:52:52.611Z,101403.34
2023-08-13T12:57:55.742Z,101432.06
2023-08-13T13:02:58.835Z,101432.44
2023-08-13T13:08:01.935Z,101444.09
2023-08-13T13:13:06.420Z,101427.84
2023-08-13T13:18:09.829Z,101430.31
2023-08-13T13:23:12.970Z,101430.56
2023-08-13T13:28:16.169Z,101412.16
2023-08-13T13:33:19.272Z,101417.00
2023-08-13T13:38:22.416Z,101388.50
2023-08-13T13:43:27.561Z,101352.09
2023-08-13T13:48:30.619Z,101359.09
2023-08-13T13:53:36.066Z,101351.56
2023-08-13T13:58:39.141Z,101382.19
2023-08-13T14:03:42.309Z,101395.44
2023-08-13T14:08:45.610Z,101410.31
2023-08-13T14:13:48.814Z,101405.19
2023-08-13T14:18:52.090Z,101428.56
2023-08-13T14:23:55.141Z,101419.16
2023-08-13T14:29:00.760Z,101409.31
2023-08-13T14:34:04.234Z,101399.47
2023-08-13T14:39:07.291Z,101416.28
2023-08-13T14:44:10.439Z,101394.56
2023-08-13T14:49:13.768Z,101386.28
2023-08-13T14:54:16.986Z,101383.13
2023-08-13T14:59:20.710Z,101355.94
2023-08-13T15:04:23.765Z,101390.72
2023-08-13T15:09:27.037Z,101391.81
2023-08-13T15:14:30.785Z,101392.66
2023-08-13T15:19:33.859Z,101387.00
2023-08-13T15:24:36.921Z,101394.59
2023-08-13T15:29:40.005Z,101372.03
2023-08-13T15:34:43.735Z,101353.13
2023-08-13T15:39:46.801Z,101361.66
2023-08-13T15:44:49.841Z,101367.25
2023-08-13T15:49:55.999Z,101364.13
2023-08-13T15:54:59.046Z,101385.97
2023-08-13T16:00:02.242Z,101372.97
2023-08-13T16:05:16.322Z,101380.56
2023-08-13T16:10:20.690Z,101366.78
2023-08-13T16:15:23.795Z,101371.69
2023-08-13T16:20:26.971Z,101381.28
2023-08-13T16:25:30.153Z,101408.56
2023-08-13T16:30:33.385Z,101405.88
2023-08-13T16:35:36.571Z,101384.22
2023-08-13T16:40:39.694Z,101413.88
2023-08-13T16:45:42.822Z,101415.03
2023-08-13T16:50:45.989Z,101421.13
2023-08-13T16:55:49.154Z,101424.25
2023-08-13T17:00:52.494Z,101418.09
2023-08-13T17:05:55.694Z,101409.94
2023-08-13T17:10:58.803Z,101417.56
2023-08-13T17:16:03.266Z,101419.13
2023-08-13T17:21:06.642Z,101437.81
2023-08-13T17:26:09.782Z,101432.41
2023-08-13T17:31:12.933Z,101428.28
2023-08-13T17:36:15.997Z,101432.13
2023-08-13T17:41:19.015Z,101419.09
2023-08-13T17:46:23.409Z,101434.81
2023-08-13T17:51:26.472Z,101439.22
2023-08-13T17:56:29.574Z,101437.22
2023-08-13T18:01:33.099Z,101447.66
2023-08-13T18:06:38.305Z,101439.84
2023-08-13T18:11:41.432Z,101440.56
2023-08-13T18:16:44.510Z,101444.97
2023-08-13T18:21:47.634Z,101451.47
2023-08-13T18:26:51.460Z,101477.91
2023-08-13T18:31:54.739Z,101466.19
2023-08-13T18:36:57.821Z,101469.94
2023-08-13T18:42:00.968Z,101464.56
2023-08-13T18:47:04.096Z,101472.22
2023-08-13T18:52:07.436Z,101458.09
2023-08-13T18:57:11.051Z,101459.34
2023-08-13T19:02:14.462Z,101429.84
2023-08-13T19:07:18.930Z,101429.53
2023-08-13T19:12:21.921Z,101418.13
2023-08-13T19:17:28.098Z,101428.81
2023-08-13T19:22:31.180Z,101423.34
2023-08-13T19:27:34.214Z,101421.78
2023-08-13T19:32:37.388Z,101420.91
2023-08-13T19:37:40.467Z,101436.50
2023-08-13T19:42:43.826Z,101426.13
2023-08-13T19:47:46.962Z,101431.72
2023-08-13T19:52:50.055Z,101433.81
2023-08-13T19:57:53.092Z,101440.09
2023-08-13T20:02:56.175Z,101446.09
2023-08-13T20:07:59.330Z,101425.84
2023-08-13T20:13:02.513Z,101441.66
2023-08-13T20:18:05.725Z,101439.56
2023-08-13T20:23:08.886Z,101441.34
2023-08-13T20:28:12.011Z,101444.56
2023-08-13T20:33:15.133Z,101446.13
2023-08-13T20:38:18.290Z,101467.47
2023-08-13T20:43:21.361Z,101484.16
2023-08-13T20:48:24.439Z,101459.00
2023-08-13T20:53:27.772Z,101480.94
2023-08-13T20:58:33.250Z,101451.00
2023-08-13T21:03:36.440Z,101460.06
2023-08-13T21:08:39.488Z,101445.38
2023-08-13T21:13:42.568Z,101457.59
2023-08-13T21:18:45.901Z,101441.97
2023-08-13T21:23:48.976Z,101449.97
2023-08-13T21:28:52.227Z,101441.25
2023-08-13T21:33:55.390Z,101442.22
2023-08-13T21:38:59.694Z,101444.97
2023-08-13T21:44:04.966Z,101448.31
2023-08-13T21:49:08.007Z,101454.84
2023-08-13T21:54:11.034Z,101441.66
2023-08-13T21:59:14.055Z,101453.06
2023-08-13T22:04:17.140Z,101446.91
2023-08-13T22:09:20.226Z,101447.19
2023-08-13T22:14:23.564Z,101464.34
2023-08-13T22:19:45.045Z,101466.44
2023-08-13T22:24:48.315Z,101455.72
2023-08-13T22:29:51.495Z,101473.91
2023-08-13T22:34:54.688Z,101472.56
2023-08-13T22:39:57.783Z,101459.50
2023-08-13T22:45:00.858Z,101466.41
2023-08-13T22:50:04.368Z,101458.44
2023-08-13T22:55:08.091Z,101477.94
2023-08-13T23:00:11.937Z,101469.53
2023-08-13T23:05:14.989Z,101468.59
2023-08-13T23:10:18.070Z,101476.06
2023-08-13T23:15:22.440Z,101490.66
2023-08-13T23:20:25.572Z,101463.78
2023-08-13T23:25:29.897Z,101462.59
2023-08-13T23:30:33.962Z,101484.28
2023-08-13T23:35:37.186Z,101458.78
2023-08-13T23:40:40.282Z,101458.53
2023-08-13T23:45:44.785Z,101461.09
2023-08-13T23:50:55.581Z,101454.25
2023-08-13T23:55:59.068Z,101472.03
